sensor_id;sensor_type;location;lat;lon;timestamp;P1;durP1;ratioP1;P2;durP2;ratioP2
11078;SDS011;5592;49.234;7.268;2023-05-13T00:00:41;2.40;;;2.07;;
11078;SDS011;5592;49.234;7.268;2023-05-13T00:03:09;2.40;;;1.80;;
11078;SDS011;5592;49.234;7.268;2023-05-13T00:05:36;1.83;;;1.73;;
11078;SDS011;5592;49.234;7.268;2023-05-13T00:08:02;3.90;;;1.83;;
11078;SDS011;5592;49.234;7.268;2023-05-13T00:10:36;2.00;;;1.83;;
11078;SDS011;5592;49.234;7.268;2023-05-13T00:13:02;3.50;;;1.73;;
11078;SDS011;5592;49.234;7.268;2023-05-13T00:15:28;2.20;;;2.00;;
11078;SDS011;5592;49.234;7.268;2023-05-13T00:17:53;4.87;;;2.43;;
11078;SDS011;5592;49.234;7.268;2023-05-13T00:20:19;1.90;;;1.70;;
11078;SDS011;5592;49.234;7.268;2023-05-13T00:22:45;2.13;;;1.80;;
11078;SDS011;5592;49.234;7.268;2023-05-13T00:25:10;2.20;;;2.00;;
11078;SDS011;5592;49.234;7.268;2023-05-13T00:27:36;2.13;;;1.93;;
11078;SDS011;5592;49.234;7.268;2023-05-13T00:30:02;3.00;;;2.07;;
11078;SDS011;5592;49.234;7.268;2023-05-13T00:32:29;2.30;;;2.10;;
11078;SDS011;5592;49.234;7.268;2023-05-13T00:34:58;2.80;;;1.93;;
11078;SDS011;5592;49.234;7.268;2023-05-13T00:37:24;2.90;;;2.07;;
11078;SDS011;5592;49.234;7.268;2023-05-13T00:39:49;2.50;;;2.30;;
11078;SDS011;5592;49.234;7.268;2023-05-13T00:42:15;2.27;;;1.90;;
11078;SDS011;5592;49.234;7.268;2023-05-13T00:44:41;2.30;;;2.10;;
11078;SDS011;5592;49.234;7.268;2023-05-13T00:47:06;2.27;;;1.87;;
11078;SDS011;5592;49.234;7.268;2023-05-13T00:49:35;2.33;;;2.10;;
11078;SDS011;5592;49.234;7.268;2023-05-13T00:52:01;2.73;;;2.30;;
11078;SDS011;5592;49.234;7.268;2023-05-13T00:54:27;2.47;;;2.07;;
11078;SDS011;5592;49.234;7.268;2023-05-13T00:56:53;2.63;;;2.30;;
11078;SDS011;5592;49.234;7.268;2023-05-13T00:59:25;4.20;;;2.67;;
11078;SDS011;5592;49.234;7.268;2023-05-13T01:02:13;2.57;;;2.20;;
11078;SDS011;5592;49.234;7.268;2023-05-13T01:04:49;4.20;;;2.20;;
11078;SDS011;5592;49.234;7.268;2023-05-13T01:07:48;8.37;;;2.43;;
11078;SDS011;5592;49.234;7.268;2023-05-13T01:13:08;2.30;;;2.10;;
11078;SDS011;5592;49.234;7.268;2023-05-13T01:15:42;4.37;;;2.70;;
11078;SDS011;5592;49.234;7.268;2023-05-13T01:18:22;5.23;;;2.73;;
11078;SDS011;5592;49.234;7.268;2023-05-13T01:20:52;5.00;;;3.57;;
11078;SDS011;5592;49.234;7.268;2023-05-13T01:23:18;3.60;;;2.80;;
11078;SDS011;5592;49.234;7.268;2023-05-13T01:25:44;7.97;;;3.50;;
11078;SDS011;5592;49.234;7.268;2023-05-13T01:28:10;6.00;;;3.13;;
11078;SDS011;5592;49.234;7.268;2023-05-13T01:30:35;5.17;;;3.07;;
11078;SDS011;5592;49.234;7.268;2023-05-13T01:33:01;3.43;;;3.13;;
11078;SDS011;5592;49.234;7.268;2023-05-13T01:35:27;7.20;;;3.30;;
11078;SDS011;5592;49.234;7.268;2023-05-13T01:37:59;2.80;;;2.60;;
11078;SDS011;5592;49.234;7.268;2023-05-13T01:40:26;5.73;;;2.93;;
11078;SDS011;5592;49.234;7.268;2023-05-13T01:42:52;3.97;;;3.57;;
11078;SDS011;5592;49.234;7.268;2023-05-13T01:45:18;4.23;;;3.23;;
11078;SDS011;5592;49.234;7.268;2023-05-13T01:47:44;3.13;;;2.93;;
11078;SDS011;5592;49.234;7.268;2023-05-13T01:50:09;4.90;;;3.20;;
11078;SDS011;5592;49.234;7.268;2023-05-13T01:52:35;7.90;;;4.20;;
11078;SDS011;5592;49.234;7.268;2023-05-13T01:55:00;3.90;;;3.40;;
11078;SDS011;5592;49.234;7.268;2023-05-13T01:57:26;7.60;;;3.90;;
11078;SDS011;5592;49.234;7.268;2023-05-13T01:59:54;4.07;;;3.60;;
11078;SDS011;5592;49.234;7.268;2023-05-13T02:02:20;6.00;;;4.53;;
11078;SDS011;5592;49.234;7.268;2023-05-13T02:04:45;5.70;;;3.80;;
11078;SDS011;5592;49.234;7.268;2023-05-13T02:07:11;3.83;;;3.43;;
11078;SDS011;5592;49.234;7.268;2023-05-13T02:09:37;5.00;;;3.40;;
11078;SDS011;5592;49.234;7.268;2023-05-13T02:12:02;6.20;;;3.67;;
11078;SDS011;5592;49.234;7.268;2023-05-13T02:14:28;4.23;;;3.50;;
11078;SDS011;5592;49.234;7.268;2023-05-13T02:16:54;6.43;;;4.20;;
11078;SDS011;5592;49.234;7.268;2023-05-13T02:19:19;3.77;;;2.97;;
11078;SDS011;5592;49.234;7.268;2023-05-13T02:21:45;9.83;;;4.00;;
11078;SDS011;5592;49.234;7.268;2023-05-13T02:24:10;4.57;;;3.10;;
11078;SDS011;5592;49.234;7.268;2023-05-13T02:26:37;5.57;;;3.10;;
11078;SDS011;5592;49.234;7.268;2023-05-13T02:29:05;6.70;;;4.27;;
11078;SDS011;5592;49.234;7.268;2023-05-13T02:31:31;5.70;;;4.63;;
11078;SDS011;5592;49.234;7.268;2023-05-13T02:33:57;6.10;;;4.43;;
11078;SDS011;5592;49.234;7.268;2023-05-13T02:36:22;9.93;;;4.67;;
11078;SDS011;5592;49.234;7.268;2023-05-13T02:38:48;7.40;;;5.43;;
11078;SDS011;5592;49.234;7.268;2023-05-13T02:41:14;8.17;;;5.33;;
11078;SDS011;5592;49.234;7.268;2023-05-13T02:43:39;5.60;;;5.00;;
11078;SDS011;5592;49.234;7.268;2023-05-13T02:46:05;8.80;;;5.90;;
11078;SDS011;5592;49.234;7.268;2023-05-13T02:48:31;6.00;;;4.60;;
11078;SDS011;5592;49.234;7.268;2023-05-13T02:50:56;6.00;;;5.40;;
11078;SDS011;5592;49.234;7.268;2023-05-13T02:53:22;6.60;;;5.57;;
11078;SDS011;5592;49.234;7.268;2023-05-13T02:55:48;6.13;;;5.40;;
11078;SDS011;5592;49.234;7.268;2023-05-13T02:58:13;14.50;;;5.50;;
11078;SDS011;5592;49.234;7.268;2023-05-13T03:00:39;7.87;;;4.90;;
11078;SDS011;5592;49.234;7.268;2023-05-13T03:03:05;6.47;;;4.83;;
11078;SDS011;5592;49.234;7.268;2023-05-13T03:05:30;8.13;;;5.37;;
11078;SDS011;5592;49.234;7.268;2023-05-13T03:07:56;10.43;;;5.60;;
11078;SDS011;5592;49.234;7.268;2023-05-13T03:10:22;7.23;;;5.93;;
11078;SDS011;5592;49.234;7.268;2023-05-13T03:12:47;8.40;;;5.70;;
11078;SDS011;5592;49.234;7.268;2023-05-13T03:15:13;5.93;;;4.63;;
11078;SDS011;5592;49.234;7.268;2023-05-13T03:17:40;13.93;;;5.10;;
11078;SDS011;5592;49.234;7.268;2023-05-13T03:20:06;7.43;;;5.23;;
11078;SDS011;5592;49.234;7.268;2023-05-13T03:22:32;8.17;;;5.23;;
11078;SDS011;5592;49.234;7.268;2023-05-13T03:24:57;7.17;;;5.67;;
11078;SDS011;5592;49.234;7.268;2023-05-13T03:27:23;11.27;;;6.33;;
11078;SDS011;5592;49.234;7.268;2023-05-13T03:29:49;20.47;;;7.00;;
11078;SDS011;5592;49.234;7.268;2023-05-13T03:32:15;9.00;;;5.87;;
11078;SDS011;5592;49.234;7.268;2023-05-13T03:34:40;7.60;;;6.67;;
11078;SDS011;5592;49.234;7.268;2023-05-13T03:37:06;8.57;;;7.00;;
11078;SDS011;5592;49.234;7.268;2023-05-13T03:39:32;16.17;;;6.60;;
11078;SDS011;5592;49.234;7.268;2023-05-13T03:41:58;9.77;;;7.13;;
11078;SDS011;5592;49.234;7.268;2023-05-13T03:44:24;6.73;;;5.80;;
11078;SDS011;5592;49.234;7.268;2023-05-13T03:46:52;8.80;;;6.60;;
11078;SDS011;5592;49.234;7.268;2023-05-13T03:49:17;8.77;;;6.10;;
11078;SDS011;5592;49.234;7.268;2023-05-13T03:51:43;8.53;;;5.70;;
11078;SDS011;5592;49.234;7.268;2023-05-13T03:54:09;11.83;;;6.27;;
11078;SDS011;5592;49.234;7.268;2023-05-13T03:56:34;6.70;;;6.00;;
11078;SDS011;5592;49.234;7.268;2023-05-13T03:59:00;8.50;;;6.77;;
11078;SDS011;5592;49.234;7.268;2023-05-13T04:01:25;9.90;;;7.63;;
11078;SDS011;5592;49.234;7.268;2023-05-13T04:03:51;12.00;;;7.40;;
11078;SDS011;5592;49.234;7.268;2023-05-13T04:06:17;10.60;;;7.67;;
11078;SDS011;5592;49.234;7.268;2023-05-13T04:08:42;9.67;;;7.00;;
11078;SDS011;5592;49.234;7.268;2023-05-13T04:11:08;8.23;;;6.73;;
11078;SDS011;5592;49.234;7.268;2023-05-13T04:13:34;9.77;;;7.30;;
11078;SDS011;5592;49.234;7.268;2023-05-13T04:16:00;11.50;;;6.97;;
11078;SDS011;5592;49.234;7.268;2023-05-13T04:18:27;12.20;;;6.67;;
11078;SDS011;5592;49.234;7.268;2023-05-13T04:20:57;7.37;;;6.13;;
11078;SDS011;5592;49.234;7.268;2023-05-13T04:23:23;12.23;;;6.30;;
11078;SDS011;5592;49.234;7.268;2023-05-13T04:25:52;9.23;;;6.43;;
11078;SDS011;5592;49.234;7.268;2023-05-13T04:28:18;9.50;;;6.90;;
11078;SDS011;5592;49.234;7.268;2023-05-13T04:30:44;8.93;;;6.30;;
11078;SDS011;5592;49.234;7.268;2023-05-13T04:33:10;9.90;;;6.83;;
11078;SDS011;5592;49.234;7.268;2023-05-13T04:35:35;9.03;;;6.67;;
11078;SDS011;5592;49.234;7.268;2023-05-13T04:38:01;7.53;;;6.40;;
11078;SDS011;5592;49.234;7.268;2023-05-13T04:40:29;10.23;;;6.90;;
11078;SDS011;5592;49.234;7.268;2023-05-13T04:42:55;7.30;;;6.07;;
11078;SDS011;5592;49.234;7.268;2023-05-13T04:45:20;8.13;;;6.83;;
11078;SDS011;5592;49.234;7.268;2023-05-13T04:47:46;10.33;;;6.50;;
11078;SDS011;5592;49.234;7.268;2023-05-13T04:50:12;8.63;;;6.47;;
11078;SDS011;5592;49.234;7.268;2023-05-13T04:52:37;7.43;;;6.10;;
11078;SDS011;5592;49.234;7.268;2023-05-13T04:55:04;7.17;;;6.20;;
11078;SDS011;5592;49.234;7.268;2023-05-13T04:57:29;7.23;;;6.40;;
11078;SDS011;5592;49.234;7.268;2023-05-13T04:59:55;9.00;;;5.93;;
11078;SDS011;5592;49.234;7.268;2023-05-13T05:02:21;5.80;;;5.20;;
11078;SDS011;5592;49.234;7.268;2023-05-13T05:04:46;8.13;;;5.67;;
11078;SDS011;5592;49.234;7.268;2023-05-13T05:07:13;8.07;;;5.70;;
11078;SDS011;5592;49.234;7.268;2023-05-13T05:09:39;6.23;;;5.63;;
11078;SDS011;5592;49.234;7.268;2023-05-13T05:12:04;6.03;;;5.10;;
11078;SDS011;5592;49.234;7.268;2023-05-13T05:14:30;6.90;;;4.70;;
11078;SDS011;5592;49.234;7.268;2023-05-13T05:16:56;4.60;;;3.53;;
11078;SDS011;5592;49.234;7.268;2023-05-13T05:19:21;3.77;;;3.47;;
11078;SDS011;5592;49.234;7.268;2023-05-13T05:21:48;3.20;;;2.90;;
11078;SDS011;5592;49.234;7.268;2023-05-13T05:24:15;3.30;;;3.00;;
11078;SDS011;5592;49.234;7.268;2023-05-13T05:26:40;4.33;;;3.37;;
11078;SDS011;5592;49.234;7.268;2023-05-13T05:29:06;3.70;;;3.03;;
11078;SDS011;5592;49.234;7.268;2023-05-13T05:31:32;4.80;;;3.07;;
11078;SDS011;5592;49.234;7.268;2023-05-13T05:33:57;4.70;;;2.60;;
11078;SDS011;5592;49.234;7.268;2023-05-13T05:36:24;4.73;;;3.20;;
11078;SDS011;5592;49.234;7.268;2023-05-13T05:38:50;3.40;;;3.10;;
11078;SDS011;5592;49.234;7.268;2023-05-13T05:41:16;3.20;;;2.90;;
11078;SDS011;5592;49.234;7.268;2023-05-13T05:43:41;3.00;;;2.70;;
11078;SDS011;5592;49.234;7.268;2023-05-13T05:46:07;3.50;;;2.90;;
11078;SDS011;5592;49.234;7.268;2023-05-13T05:48:33;3.47;;;2.93;;
11078;SDS011;5592;49.234;7.268;2023-05-13T05:50:58;5.23;;;3.53;;
11078;SDS011;5592;49.234;7.268;2023-05-13T05:53:24;3.60;;;3.00;;
11078;SDS011;5592;49.234;7.268;2023-05-13T05:55:50;9.67;;;3.63;;
11078;SDS011;5592;49.234;7.268;2023-05-13T05:58:15;4.57;;;3.20;;
11078;SDS011;5592;49.234;7.268;2023-05-13T06:00:41;4.20;;;3.37;;
11078;SDS011;5592;49.234;7.268;2023-05-13T06:03:07;5.80;;;3.20;;
11078;SDS011;5592;49.234;7.268;2023-05-13T06:05:32;3.60;;;3.30;;
11078;SDS011;5592;49.234;7.268;2023-05-13T06:07:59;7.53;;;3.67;;
11078;SDS011;5592;49.234;7.268;2023-05-13T06:10:24;5.00;;;2.60;;
11078;SDS011;5592;49.234;7.268;2023-05-13T06:12:50;3.53;;;3.23;;
11078;SDS011;5592;49.234;7.268;2023-05-13T06:15:16;3.03;;;2.80;;
11078;SDS011;5592;49.234;7.268;2023-05-13T06:17:41;5.60;;;3.10;;
11078;SDS011;5592;49.234;7.268;2023-05-13T06:20:07;6.03;;;2.93;;
11078;SDS011;5592;49.234;7.268;2023-05-13T06:22:33;3.87;;;2.70;;
11078;SDS011;5592;49.234;7.268;2023-05-13T06:24:58;5.97;;;2.60;;
11078;SDS011;5592;49.234;7.268;2023-05-13T06:27:24;8.57;;;2.90;;
11078;SDS011;5592;49.234;7.268;2023-05-13T06:29:50;6.03;;;2.97;;
11078;SDS011;5592;49.234;7.268;2023-05-13T06:32:15;4.40;;;3.30;;
11078;SDS011;5592;49.234;7.268;2023-05-13T06:34:41;3.47;;;3.07;;
11078;SDS011;5592;49.234;7.268;2023-05-13T06:37:10;8.40;;;3.90;;
11078;SDS011;5592;49.234;7.268;2023-05-13T06:39:39;4.37;;;3.17;;
11078;SDS011;5592;49.234;7.268;2023-05-13T06:42:05;5.33;;;2.90;;
11078;SDS011;5592;49.234;7.268;2023-05-13T06:44:31;2.80;;;2.53;;
11078;SDS011;5592;49.234;7.268;2023-05-13T06:46:56;2.90;;;2.30;;
11078;SDS011;5592;49.234;7.268;2023-05-13T06:49:22;3.50;;;2.50;;
11078;SDS011;5592;49.234;7.268;2023-05-13T06:51:51;5.00;;;2.50;;
11078;SDS011;5592;49.234;7.268;2023-05-13T06:54:16;2.63;;;2.40;;
11078;SDS011;5592;49.234;7.268;2023-05-13T06:56:42;2.30;;;2.10;;
11078;SDS011;5592;49.234;7.268;2023-05-13T06:59:07;5.53;;;2.77;;
11078;SDS011;5592;49.234;7.268;2023-05-13T07:01:33;4.63;;;2.67;;
11078;SDS011;5592;49.234;7.268;2023-05-13T07:03:58;3.33;;;2.57;;
11078;SDS011;5592;49.234;7.268;2023-05-13T07:06:24;3.53;;;2.60;;
11078;SDS011;5592;49.234;7.268;2023-05-13T07:08:50;2.63;;;2.43;;
11078;SDS011;5592;49.234;7.268;2023-05-13T07:11:15;2.60;;;2.40;;
11078;SDS011;5592;49.234;7.268;2023-05-13T07:13:41;2.83;;;2.40;;
11078;SDS011;5592;49.234;7.268;2023-05-13T07:16:07;2.70;;;2.50;;
11078;SDS011;5592;49.234;7.268;2023-05-13T07:18:35;3.73;;;2.70;;
11078;SDS011;5592;49.234;7.268;2023-05-13T07:21:01;4.40;;;2.40;;
11078;SDS011;5592;49.234;7.268;2023-05-13T07:23:27;3.07;;;2.30;;
11078;SDS011;5592;49.234;7.268;2023-05-13T07:25:52;4.50;;;2.40;;
11078;SDS011;5592;49.234;7.268;2023-05-13T07:28:18;5.30;;;2.33;;
11078;SDS011;5592;49.234;7.268;2023-05-13T07:30:44;2.53;;;2.10;;
11078;SDS011;5592;49.234;7.268;2023-05-13T07:33:11;4.23;;;2.50;;
11078;SDS011;5592;49.234;7.268;2023-05-13T07:35:36;3.57;;;2.33;;
11078;SDS011;5592;49.234;7.268;2023-05-13T07:38:02;3.80;;;2.60;;
11078;SDS011;5592;49.234;7.268;2023-05-13T07:40:28;2.50;;;2.30;;
11078;SDS011;5592;49.234;7.268;2023-05-13T07:42:54;2.23;;;2.03;;
11078;SDS011;5592;49.234;7.268;2023-05-13T07:45:20;22.40;;;2.90;;
11078;SDS011;5592;49.234;7.268;2023-05-13T07:47:45;5.17;;;2.67;;
11078;SDS011;5592;49.234;7.268;2023-05-13T07:50:11;2.30;;;2.20;;
11078;SDS011;5592;49.234;7.268;2023-05-13T07:52:37;3.03;;;2.70;;
11078;SDS011;5592;49.234;7.268;2023-05-13T07:55:02;4.77;;;2.73;;
11078;SDS011;5592;49.234;7.268;2023-05-13T07:57:29;2.47;;;2.20;;
11078;SDS011;5592;49.234;7.268;2023-05-13T07:59:55;2.60;;;2.37;;
11078;SDS011;5592;49.234;7.268;2023-05-13T08:02:21;2.60;;;2.30;;
11078;SDS011;5592;49.234;7.268;2023-05-13T08:04:48;2.63;;;2.13;;
11078;SDS011;5592;49.234;7.268;2023-05-13T08:07:16;2.20;;;2.00;;
11078;SDS011;5592;49.234;7.268;2023-05-13T08:09:42;2.53;;;2.30;;
11078;SDS011;5592;49.234;7.268;2023-05-13T08:12:08;3.83;;;2.70;;
11078;SDS011;5592;49.234;7.268;2023-05-13T08:14:34;3.47;;;2.43;;
11078;SDS011;5592;49.234;7.268;2023-05-13T08:17:00;2.50;;;2.30;;
11078;SDS011;5592;49.234;7.268;2023-05-13T08:19:25;2.90;;;2.60;;
11078;SDS011;5592;49.234;7.268;2023-05-13T08:21:51;2.93;;;2.13;;
11078;SDS011;5592;49.234;7.268;2023-05-13T08:24:17;2.53;;;2.20;;
11078;SDS011;5592;49.234;7.268;2023-05-13T08:26:42;3.27;;;2.20;;
11078;SDS011;5592;49.234;7.268;2023-05-13T08:29:08;9.57;;;2.73;;
11078;SDS011;5592;49.234;7.268;2023-05-13T08:31:36;2.33;;;2.13;;
11078;SDS011;5592;49.234;7.268;2023-05-13T08:34:02;2.67;;;2.43;;
11078;SDS011;5592;49.234;7.268;2023-05-13T08:36:28;4.60;;;2.40;;
11078;SDS011;5592;49.234;7.268;2023-05-13T08:38:53;3.20;;;2.03;;
11078;SDS011;5592;49.234;7.268;2023-05-13T08:41:19;4.20;;;2.70;;
11078;SDS011;5592;49.234;7.268;2023-05-13T08:43:47;5.13;;;2.30;;
11078;SDS011;5592;49.234;7.268;2023-05-13T08:46:13;4.13;;;2.50;;
11078;SDS011;5592;49.234;7.268;2023-05-13T08:48:41;4.00;;;2.10;;
11078;SDS011;5592;49.234;7.268;2023-05-13T08:51:07;3.40;;;2.30;;
11078;SDS011;5592;49.234;7.268;2023-05-13T08:53:33;2.57;;;2.30;;
11078;SDS011;5592;49.234;7.268;2023-05-13T08:56:00;2.80;;;2.30;;
11078;SDS011;5592;49.234;7.268;2023-05-13T08:58:26;3.80;;;2.17;;
11078;SDS011;5592;49.234;7.268;2023-05-13T09:00:52;3.20;;;2.40;;
11078;SDS011;5592;49.234;7.268;2023-05-13T09:03:18;3.77;;;2.10;;
11078;SDS011;5592;49.234;7.268;2023-05-13T09:05:45;2.90;;;2.17;;
11078;SDS011;5592;49.234;7.268;2023-05-13T09:08:11;2.90;;;2.03;;
11078;SDS011;5592;49.234;7.268;2023-05-13T09:10:37;2.37;;;2.10;;
11078;SDS011;5592;49.234;7.268;2023-05-13T09:13:02;3.30;;;2.57;;
11078;SDS011;5592;49.234;7.268;2023-05-13T09:15:29;3.17;;;2.20;;
11078;SDS011;5592;49.234;7.268;2023-05-13T09:18:03;2.67;;;2.47;;
11078;SDS011;5592;49.234;7.268;2023-05-13T09:20:30;2.70;;;2.50;;
11078;SDS011;5592;49.234;7.268;2023-05-13T09:25:27;4.90;;;2.17;;
11078;SDS011;5592;49.234;7.268;2023-05-13T09:27:54;2.50;;;2.30;;
11078;SDS011;5592;49.234;7.268;2023-05-13T09:30:22;3.00;;;2.10;;
11078;SDS011;5592;49.234;7.268;2023-05-13T09:35:41;4.20;;;2.10;;
11078;SDS011;5592;49.234;7.268;2023-05-13T09:38:15;4.20;;;1.90;;
11078;SDS011;5592;49.234;7.268;2023-05-13T09:40:48;3.00;;;2.20;;
11078;SDS011;5592;49.234;7.268;2023-05-13T09:43:14;2.80;;;2.50;;
11078;SDS011;5592;49.234;7.268;2023-05-13T09:45:40;2.60;;;2.40;;
11078;SDS011;5592;49.234;7.268;2023-05-13T09:48:06;5.73;;;2.33;;
11078;SDS011;5592;49.234;7.268;2023-05-13T09:50:32;7.50;;;2.40;;
11078;SDS011;5592;49.234;7.268;2023-05-13T09:53:08;2.07;;;1.90;;
11078;SDS011;5592;49.234;7.268;2023-05-13T09:55:35;2.50;;;2.30;;
11078;SDS011;5592;49.234;7.268;2023-05-13T09:58:02;2.27;;;2.00;;
11078;SDS011;5592;49.234;7.268;2023-05-13T10:00:33;3.77;;;2.50;;
11078;SDS011;5592;49.234;7.268;2023-05-13T10:02:59;3.67;;;2.40;;
11078;SDS011;5592;49.234;7.268;2023-05-13T10:05:26;5.10;;;2.07;;
11078;SDS011;5592;49.234;7.268;2023-05-13T10:07:51;3.60;;;2.00;;
11078;SDS011;5592;49.234;7.268;2023-05-13T10:10:18;4.70;;;2.10;;
11078;SDS011;5592;49.234;7.268;2023-05-13T10:12:44;2.90;;;2.20;;
11078;SDS011;5592;49.234;7.268;2023-05-13T10:15:10;2.93;;;2.07;;
11078;SDS011;5592;49.234;7.268;2023-05-13T10:17:36;2.50;;;2.30;;
11078;SDS011;5592;49.234;7.268;2023-05-13T10:20:02;3.77;;;2.23;;
11078;SDS011;5592;49.234;7.268;2023-05-13T10:22:30;3.97;;;2.37;;
11078;SDS011;5592;49.234;7.268;2023-05-13T10:24:57;3.10;;;2.20;;
11078;SDS011;5592;49.234;7.268;2023-05-13T10:27:28;3.40;;;2.60;;
11078;SDS011;5592;49.234;7.268;2023-05-13T10:29:57;8.10;;;2.37;;
11078;SDS011;5592;49.234;7.268;2023-05-13T10:32:25;2.83;;;2.50;;
11078;SDS011;5592;49.234;7.268;2023-05-13T10:34:59;2.30;;;2.10;;
11078;SDS011;5592;49.234;7.268;2023-05-13T10:43:09;4.37;;;2.10;;
11078;SDS011;5592;49.234;7.268;2023-05-13T10:45:47;2.30;;;2.10;;
11078;SDS011;5592;49.234;7.268;2023-05-13T10:48:14;3.17;;;2.23;;
11078;SDS011;5592;49.234;7.268;2023-05-13T10:50:50;2.97;;;2.17;;
11078;SDS011;5592;49.234;7.268;2023-05-13T10:54:02;4.43;;;2.33;;
11078;SDS011;5592;49.234;7.268;2023-05-13T10:56:13;3.90;;;2.50;;
11078;SDS011;5592;49.234;7.268;2023-05-13T10:58:39;1.90;;;1.80;;
11078;SDS011;5592;49.234;7.268;2023-05-13T11:01:12;2.83;;;2.50;;
11078;SDS011;5592;49.234;7.268;2023-05-13T11:03:49;2.20;;;2.00;;
11078;SDS011;5592;49.234;7.268;2023-05-13T11:06:18;2.30;;;2.10;;
11078;SDS011;5592;49.234;7.268;2023-05-13T11:08:45;2.70;;;2.13;;
11078;SDS011;5592;49.234;7.268;2023-05-13T11:11:31;2.70;;;2.27;;
11078;SDS011;5592;49.234;7.268;2023-05-13T11:16:24;6.40;;;2.10;;
11078;SDS011;5592;49.234;7.268;2023-05-13T11:18:50;8.73;;;2.10;;
11078;SDS011;5592;49.234;7.268;2023-05-13T11:21:16;4.50;;;2.37;;
11078;SDS011;5592;49.234;7.268;2023-05-13T11:24:02;4.00;;;2.40;;
11078;SDS011;5592;49.234;7.268;2023-05-13T11:29:09;3.97;;;2.27;;
11078;SDS011;5592;49.234;7.268;2023-05-13T11:31:45;2.30;;;2.10;;
11078;SDS011;5592;49.234;7.268;2023-05-13T11:34:14;6.53;;;2.70;;
11078;SDS011;5592;49.234;7.268;2023-05-13T11:36:47;3.80;;;2.30;;
11078;SDS011;5592;49.234;7.268;2023-05-13T11:39:18;8.13;;;3.00;;
11078;SDS011;5592;49.234;7.268;2023-05-13T11:41:47;6.40;;;2.47;;
11078;SDS011;5592;49.234;7.268;2023-05-13T11:44:14;2.83;;;2.50;;
11078;SDS011;5592;49.234;7.268;2023-05-13T11:46:56;4.23;;;2.57;;
11078;SDS011;5592;49.234;7.268;2023-05-13T11:51:58;3.13;;;2.20;;
11078;SDS011;5592;49.234;7.268;2023-05-13T11:54:28;2.47;;;2.27;;
11078;SDS011;5592;49.234;7.268;2023-05-13T11:56:53;5.07;;;2.60;;
11078;SDS011;5592;49.234;7.268;2023-05-13T11:59:19;3.20;;;2.50;;
11078;SDS011;5592;49.234;7.268;2023-05-13T12:01:45;3.50;;;2.40;;
11078;SDS011;5592;49.234;7.268;2023-05-13T12:04:25;2.53;;;2.33;;
11078;SDS011;5592;49.234;7.268;2023-05-13T12:06:52;7.60;;;2.73;;
11078;SDS011;5592;49.234;7.268;2023-05-13T12:09:20;3.50;;;3.07;;
11078;SDS011;5592;49.234;7.268;2023-05-13T12:11:47;2.23;;;2.03;;
11078;SDS011;5592;49.234;7.268;2023-05-13T12:14:17;4.17;;;3.10;;
11078;SDS011;5592;49.234;7.268;2023-05-13T12:16:46;2.57;;;2.37;;
11078;SDS011;5592;49.234;7.268;2023-05-13T12:19:12;5.67;;;2.77;;
11078;SDS011;5592;49.234;7.268;2023-05-13T12:21:38;3.80;;;2.67;;
11078;SDS011;5592;49.234;7.268;2023-05-13T12:24:19;3.27;;;2.43;;
11078;SDS011;5592;49.234;7.268;2023-05-13T12:26:46;2.57;;;2.20;;
11078;SDS011;5592;49.234;7.268;2023-05-13T12:29:12;2.77;;;2.47;;
11078;SDS011;5592;49.234;7.268;2023-05-13T12:31:40;3.43;;;2.60;;
11078;SDS011;5592;49.234;7.268;2023-05-13T12:34:06;5.50;;;2.67;;
11078;SDS011;5592;49.234;7.268;2023-05-13T12:36:35;4.70;;;2.27;;
11078;SDS011;5592;49.234;7.268;2023-05-13T12:39:06;7.00;;;2.67;;
11078;SDS011;5592;49.234;7.268;2023-05-13T12:41:39;2.40;;;2.20;;
11078;SDS011;5592;49.234;7.268;2023-05-13T12:46:33;2.53;;;2.13;;
11078;SDS011;5592;49.234;7.268;2023-05-13T12:48:59;3.03;;;2.60;;
11078;SDS011;5592;49.234;7.268;2023-05-13T12:51:26;4.07;;;2.30;;
11078;SDS011;5592;49.234;7.268;2023-05-13T12:53:54;4.47;;;2.50;;
11078;SDS011;5592;49.234;7.268;2023-05-13T12:56:20;7.83;;;2.70;;
11078;SDS011;5592;49.234;7.268;2023-05-13T12:58:47;3.70;;;2.33;;
11078;SDS011;5592;49.234;7.268;2023-05-13T13:01:13;4.77;;;2.70;;
11078;SDS011;5592;49.234;7.268;2023-05-13T13:03:39;2.30;;;2.10;;
11078;SDS011;5592;49.234;7.268;2023-05-13T13:06:04;7.90;;;2.23;;
11078;SDS011;5592;49.234;7.268;2023-05-13T13:08:30;2.20;;;2.00;;
11078;SDS011;5592;49.234;7.268;2023-05-13T13:10:57;2.67;;;2.40;;
11078;SDS011;5592;49.234;7.268;2023-05-13T13:13:23;3.60;;;2.57;;
11078;SDS011;5592;49.234;7.268;2023-05-13T13:15:49;2.87;;;2.53;;
11078;SDS011;5592;49.234;7.268;2023-05-13T13:18:14;3.40;;;2.20;;
11078;SDS011;5592;49.234;7.268;2023-05-13T13:20:40;3.10;;;2.80;;
11078;SDS011;5592;49.234;7.268;2023-05-13T13:23:08;2.87;;;2.60;;
11078;SDS011;5592;49.234;7.268;2023-05-13T13:25:34;3.03;;;2.33;;
11078;SDS011;5592;49.234;7.268;2023-05-13T13:28:00;4.90;;;3.20;;
11078;SDS011;5592;49.234;7.268;2023-05-13T13:30:29;4.33;;;2.40;;
11078;SDS011;5592;49.234;7.268;2023-05-13T13:32:54;7.93;;;2.80;;
11078;SDS011;5592;49.234;7.268;2023-05-13T13:35:20;2.40;;;2.20;;
11078;SDS011;5592;49.234;7.268;2023-05-13T13:37:49;2.97;;;2.77;;
11078;SDS011;5592;49.234;7.268;2023-05-13T13:40:14;2.87;;;2.40;;
11078;SDS011;5592;49.234;7.268;2023-05-13T13:42:41;5.33;;;2.20;;
11078;SDS011;5592;49.234;7.268;2023-05-13T13:45:06;3.93;;;2.13;;
11078;SDS011;5592;49.234;7.268;2023-05-13T13:47:32;2.37;;;2.07;;
11078;SDS011;5592;49.234;7.268;2023-05-13T13:49:59;3.40;;;2.20;;
11078;SDS011;5592;49.234;7.268;2023-05-13T13:52:24;3.80;;;3.00;;
11078;SDS011;5592;49.234;7.268;2023-05-13T13:54:52;3.20;;;2.53;;
11078;SDS011;5592;49.234;7.268;2023-05-13T13:57:18;3.13;;;2.30;;
11078;SDS011;5592;49.234;7.268;2023-05-13T13:59:44;3.43;;;2.70;;
11078;SDS011;5592;49.234;7.268;2023-05-13T14:02:09;3.53;;;2.20;;
11078;SDS011;5592;49.234;7.268;2023-05-13T14:04:35;3.10;;;2.60;;
11078;SDS011;5592;49.234;7.268;2023-05-13T14:07:01;3.73;;;3.13;;
11078;SDS011;5592;49.234;7.268;2023-05-13T14:09:26;5.60;;;2.57;;
11078;SDS011;5592;49.234;7.268;2023-05-13T14:11:52;2.90;;;1.80;;
11078;SDS011;5592;49.234;7.268;2023-05-13T14:14:17;4.00;;;2.40;;
11078;SDS011;5592;49.234;7.268;2023-05-13T14:16:43;3.00;;;2.40;;
11078;SDS011;5592;49.234;7.268;2023-05-13T14:19:12;2.97;;;2.67;;
11078;SDS011;5592;49.234;7.268;2023-05-13T14:21:37;3.17;;;2.60;;
11078;SDS011;5592;49.234;7.268;2023-05-13T14:24:03;3.70;;;2.17;;
11078;SDS011;5592;49.234;7.268;2023-05-13T14:26:29;4.30;;;2.27;;
11078;SDS011;5592;49.234;7.268;2023-05-13T14:28:54;3.40;;;2.03;;
11078;SDS011;5592;49.234;7.268;2023-05-13T14:31:20;6.67;;;2.80;;
11078;SDS011;5592;49.234;7.268;2023-05-13T14:33:46;2.50;;;2.30;;
11078;SDS011;5592;49.234;7.268;2023-05-13T14:36:12;3.40;;;2.50;;
11078;SDS011;5592;49.234;7.268;2023-05-13T14:38:40;3.87;;;2.40;;
11078;SDS011;5592;49.234;7.268;2023-05-13T14:41:07;3.80;;;2.20;;
11078;SDS011;5592;49.234;7.268;2023-05-13T14:43:32;3.30;;;2.60;;
11078;SDS011;5592;49.234;7.268;2023-05-13T14:45:58;3.10;;;2.30;;
11078;SDS011;5592;49.234;7.268;2023-05-13T14:48:24;2.63;;;2.43;;
11078;SDS011;5592;49.234;7.268;2023-05-13T14:50:50;3.87;;;2.67;;
11078;SDS011;5592;49.234;7.268;2023-05-13T14:53:15;2.87;;;2.30;;
11078;SDS011;5592;49.234;7.268;2023-05-13T14:55:41;7.10;;;2.43;;
11078;SDS011;5592;49.234;7.268;2023-05-13T14:58:07;2.77;;;2.40;;
11078;SDS011;5592;49.234;7.268;2023-05-13T15:00:33;4.73;;;2.87;;
11078;SDS011;5592;49.234;7.268;2023-05-13T15:03:02;2.17;;;1.97;;
11078;SDS011;5592;49.234;7.268;2023-05-13T15:05:28;2.50;;;2.20;;
11078;SDS011;5592;49.234;7.268;2023-05-13T15:07:54;3.73;;;2.03;;
11078;SDS011;5592;49.234;7.268;2023-05-13T15:10:20;2.63;;;2.00;;
11078;SDS011;5592;49.234;7.268;2023-05-13T15:12:45;2.00;;;1.80;;
11078;SDS011;5592;49.234;7.268;2023-05-13T15:15:11;1.70;;;1.60;;
11078;SDS011;5592;49.234;7.268;2023-05-13T15:17:37;3.90;;;2.70;;
11078;SDS011;5592;49.234;7.268;2023-05-13T15:20:02;2.13;;;1.93;;
11078;SDS011;5592;49.234;7.268;2023-05-13T15:22:28;2.67;;;2.30;;